WetterOnline ( http://www.wetteronline.de )

Wetter aktuell Petershagen

Aktuelles Wetter: Bad Salzuflen (139m)

6-stündlich | Neueste Meldungen
Ortszeit Temperatur Wetter
Di, 24.04. 2:00 9.1° C bewölkt
Mo, 23.04. 20:00 14.8° C leicht bewölkt
Mo, 23.04. 14:00 17.2° C leicht bewölkt
Mo, 23.04. 8:00 14.5° C bedeckt
Mo, 23.04. 2:00 14.4° C leicht bewölkt
So, 22.04. 20:00 17.8° C bewölkt
So, 22.04. 14:00 23.5° C leicht bewölkt
So, 22.04. 8:00 10.2° C leicht bewölkt
Ortszeit Temperatur Wetter
Di, 24.04. 2:30 8.5° C bewölkt
Di, 24.04. 2:20 8.5° C bewölkt
Di, 24.04. 2:10 9.0° C bewölkt
Di, 24.04. 2:00 9.1° C bewölkt
Di, 24.04. 1:40 8.7° C bewölkt
Di, 24.04. 1:30 8.7° C wolkig
Di, 24.04. 1:00 8.8° C leicht bewölkt
Di, 24.04. 0:30 8.9° C leicht bewölkt
Di, 24.04. 0:00 9.3° C wolkig
Mo, 23.04. 23:30 10.1° C bedeckt
Ortszeit Relative Feuchte Sichtweite
Di, 24.04. 2:00 79% 29 km
Mo, 23.04. 20:00 53% 50 km
Mo, 23.04. 14:00 49% 40 km
Mo, 23.04. 8:00 88% 5.0 km
Mo, 23.04. 2:00 86% 23 km
So, 22.04. 20:00 67% 70 km
So, 22.04. 14:00 53% 15 km
So, 22.04. 8:00 78% 40 km
Ortszeit Relative Feuchte Sichtweite
Di, 24.04. 2:30 80% 27 km
Di, 24.04. 2:20 80% -
Di, 24.04. 2:10 79% -
Di, 24.04. 2:00 79% 29 km
Di, 24.04. 1:40 80% -
Di, 24.04. 1:30 80% 28 km
Di, 24.04. 1:00 79% 30 km
Di, 24.04. 0:30 79% 30 km
Di, 24.04. 0:00 77% 35 km
Mo, 23.04. 23:30 73% 40 km
Ortszeit Niederschlagsmenge Niederschlagsart
Di, 24.04. 2:00 0.0 l/m2 in 6 Std. -
Mo, 23.04. 20:00 0.0 l/m2 in 12 Std. -
Mo, 23.04. 14:00 0.0 l/m2 in 6 Std. -
Mo, 23.04. 8:00 1 l/m2 in 12 Std. Regen
Mo, 23.04. 2:00 0.1 l/m2 in 6 Std. Regen
So, 22.04. 20:00 0.1 l/m2 in 12 Std. Regen
So, 22.04. 14:00 0.1 l/m2 in 6 Std. Regen
So, 22.04. 8:00 0.0 l/m2 in 12 Std. -
Ortszeit Niederschlagsmenge Niederschlagsart
Di, 24.04. 2:30 0.0 l/m2 in 1 Std. -
Di, 24.04. 2:20 keine Meldung -
Di, 24.04. 2:10 keine Meldung -
Di, 24.04. 2:00 0.0 l/m2 in 1 Std. -
Di, 24.04. 1:40 keine Meldung -
Di, 24.04. 1:30 0.0 l/m2 in 1 Std. -
Di, 24.04. 1:00 0.0 l/m2 in 1 Std. -
Di, 24.04. 0:30 0.0 l/m2 in 1 Std. -
Di, 24.04. 0:00 0.0 l/m2 in 1 Std. -
Mo, 23.04. 23:30 0.0 l/m2 in 1 Std. -
Ortszeit Stärke Spitze Richtung
km/h Bft. km/h Grad Sektor
Di, 24.04. 2:00 6 1 24 180° S
Mo, 23.04. 20:00 11 2 47 260° W
Mo, 23.04. 14:00 22 4 43 240° SW
Mo, 23.04. 8:00 11 2 29 220° SW
Mo, 23.04. 2:00 7 2 25 210° SW
So, 22.04. 20:00 11 2 48 180° S
So, 22.04. 14:00 9 2 20 170° S
So, 22.04. 8:00 2 1 11 60° NO
Ortszeit Stärke Spitze Richtung
km/h Bft. km/h Grad Sektor
Di, 24.04. 2:30 6 1 7 200° S
Di, 24.04. 2:20 6 1 - 200° S
Di, 24.04. 2:10 6 1 - 190° S
Di, 24.04. 2:00 6 1 7 180° S
Di, 24.04. 1:40 6 1 - 190° S
Di, 24.04. 1:30 6 1 7 210° SW
Di, 24.04. 1:00 6 1 7 230° SW
Di, 24.04. 0:30 4 1 7 260° W
Di, 24.04. 0:00 4 1 7 260° W
Mo, 23.04. 23:30 4 1 7 260° W
Ortszeit Untergrenze Bedeckung Gattung
total tief tief mittel hoch
Di, 24.04. 2:00 1230 m 7/8 7/8 - - -
Mo, 23.04. 20:00 1800 m 5/8 1/8 - - -
Mo, 23.04. 14:00 1800 m 1/8 4/8 - - -
Mo, 23.04. 8:00 1800 m 8/8 8/8 - - -
Mo, 23.04. 2:00 1500 m 6/8 1/8 - - -
So, 22.04. 20:00 2400 m 8/8 7/8 - - -
So, 22.04. 14:00 8700 m 6/8 0/8 - - -
So, 22.04. 8:00 2700 m 3/8 6/8 - - -
Ortszeit Bedeckungsgrad in Achtel und Wolkenuntergrenze
Di, 24.04. 2:30 6(1230m) 7(3000m) 7(7800m)
Di, 24.04. 2:20 6(1230m) 7(3000m) 7(7800m)
Di, 24.04. 2:10 7(1230m) 8(3000m)
Di, 24.04. 2:00 5(1230m) 6(2100m) 7(2700m)
Di, 24.04. 1:40 3(1200m) 6(2700m) 7(8700m)
Di, 24.04. 1:30 1(1230m) 4(3000m) 7(8700m)
Di, 24.04. 1:00 1(2400m) 5(8400m)
Di, 24.04. 0:30 2(2400m) 3(3600m) 9
Di, 24.04. 0:00 1(2400m) 3(3600m)
Mo, 23.04. 23:30 2(3000m) 4(8400m) 7(9000m)
Ortszeit Luftdruck NN (hPa) Tendenz (hPa in 3 Std.)
Di, 24.04. 2:00 1017 + 0,1
Mo, 23.04. 20:00 1015 + 0,8
Mo, 23.04. 14:00 1015 + 1,0
Mo, 23.04. 8:00 1012 + 0,7
Mo, 23.04. 2:00 1011 - 0,2
So, 22.04. 20:00 1010 - 0,1
So, 22.04. 14:00 1012 - 1,8
So, 22.04. 8:00 1016 - 1,3
Ortszeit Luftdruck NN (hPa) Tendenz (hPa in 3 Std.)
Di, 24.04. 2:30 1016 - 0,2
Di, 24.04. 2:20 1016 keine Meldung
Di, 24.04. 2:10 1016 keine Meldung
Di, 24.04. 2:00 1017 + 0,1
Di, 24.04. 1:40 1017 keine Meldung
Di, 24.04. 1:30 1017 + 0,2
Di, 24.04. 1:00 1017 + 0,1
Di, 24.04. 0:30 1016 + 0,4
Di, 24.04. 0:00 1016 + 0,4
Mo, 23.04. 23:30 1016 + 0,7
Ortszeit Schneehöhe (cm)
Di, 24.04. 2:00 0
Mo, 23.04. 20:00 0
Mo, 23.04. 14:00 0
Mo, 23.04. 8:00 0
Mo, 23.04. 2:00 0
So, 22.04. 20:00 0
So, 22.04. 14:00 0
So, 22.04. 8:00 0
Ortszeit Schneehöhe (cm)
Di, 24.04. 2:30 0
Di, 24.04. 2:20 0
Di, 24.04. 2:10 0
Di, 24.04. 2:00 0
Di, 24.04. 1:40 0
Di, 24.04. 1:30 0
Di, 24.04. 1:00 0
Di, 24.04. 0:30 0
Di, 24.04. 0:00 0
Mo, 23.04. 23:30 0
Link zu dieser Seite / Seite empfehlen

Das Wetter in ...